createdAt,value
2023-04-09T00:01:57.143Z,44.60
2023-04-09T00:04:27.489Z,49.70
2023-04-09T00:07:09.553Z,48.10
2023-04-09T00:12:17.491Z,57.80
2023-04-09T00:14:58.693Z,48.80
2023-04-09T00:17:35.675Z,49.90
2023-04-09T00:20:10.143Z,48.50
2023-04-09T00:22:44.791Z,50.90
2023-04-09T00:25:17.485Z,48.00
2023-04-09T00:27:52.530Z,51.30
2023-04-09T00:30:34.401Z,51.00
2023-04-09T00:33:15.265Z,51.90
2023-04-09T00:35:45.839Z,50.30
2023-04-09T00:38:16.329Z,50.10
2023-04-09T00:40:58.182Z,51.50
2023-04-09T00:43:30.772Z,47.60
2023-04-09T00:46:02.074Z,52.40
2023-04-09T00:48:33.216Z,54.90
2023-04-09T00:51:10.775Z,53.60
2023-04-09T00:53:44.288Z,55.60
2023-04-09T00:56:17.026Z,57.60
2023-04-09T00:58:52.812Z,57.20
2023-04-09T01:01:25.656Z,55.00
2023-04-09T01:04:09.053Z,57.60
2023-04-09T01:07:00.097Z,63.30
2023-04-09T01:09:43.699Z,59.20
2023-04-09T01:12:57.672Z,59.50
2023-04-09T01:15:37.708Z,61.50
2023-04-09T01:18:24.088Z,60.80
2023-04-09T01:21:23.277Z,62.00
2023-04-09T01:24:23.460Z,58.00
2023-04-09T01:27:08.489Z,65.50
2023-04-09T01:29:58.151Z,60.90
2023-04-09T01:32:27.681Z,64.20
2023-04-09T01:35:01.325Z,63.40
2023-04-09T01:37:30.966Z,63.90
2023-04-09T01:40:00.617Z,60.80
2023-04-09T01:42:30.784Z,64.50
2023-04-09T01:45:03.071Z,65.30
2023-04-09T01:47:35.055Z,64.90
2023-04-09T01:52:34.369Z,59.40
2023-04-09T01:55:04.247Z,59.10
2023-04-09T01:57:36.458Z,58.50
2023-04-09T02:03:39.751Z,58.40
2023-04-09T02:06:27.676Z,60.00
2023-04-09T02:09:02.179Z,59.30
2023-04-09T02:11:40.502Z,59.20
2023-04-09T02:14:13.126Z,57.80
2023-04-09T02:16:43.907Z,57.70
2023-04-09T02:19:19.423Z,61.70
2023-04-09T02:21:53.704Z,59.90
2023-04-09T02:24:27.404Z,58.70
2023-04-09T02:27:07.549Z,59.30
2023-04-09T02:29:48.872Z,59.80
2023-04-09T02:32:33.686Z,58.90
2023-04-09T02:35:18.174Z,60.80
2023-04-09T02:37:57.811Z,61.10
2023-04-09T02:40:30.645Z,62.00
2023-04-09T02:43:09.161Z,59.20
2023-04-09T02:46:17.329Z,59.20
2023-04-09T02:48:59.656Z,58.50
2023-04-09T02:51:38.216Z,62.20
2023-04-09T02:54:20.805Z,63.50
2023-04-09T02:56:56.617Z,60.90
2023-04-09T02:59:33.166Z,59.10
2023-04-09T03:02:09.557Z,58.50
2023-04-09T03:04:48.446Z,59.20
2023-04-09T03:07:28.996Z,55.30
2023-04-09T03:10:04.645Z,61.60
2023-04-09T03:12:34.853Z,64.10
2023-04-09T03:15:06.295Z,63.80
2023-04-09T03:17:41.328Z,65.10
2023-04-09T03:20:19.302Z,57.20
2023-04-09T03:22:51.450Z,53.30
2023-04-09T03:25:38.881Z,55.40
2023-04-09T03:28:23.797Z,57.50
2023-04-09T03:31:01.773Z,59.80
2023-04-09T03:33:40.926Z,58.70
2023-04-09T03:36:18.372Z,46.30
2023-04-09T03:39:35.291Z,45.40
2023-04-09T03:42:20.731Z,46.00
2023-04-09T03:44:58.484Z,43.40
2023-04-09T03:47:43.211Z,43.00
2023-04-09T03:50:21.827Z,45.60
2023-04-09T03:52:57.815Z,41.60
2023-04-09T03:55:33.357Z,42.70
2023-04-09T03:58:19.273Z,44.60
2023-04-09T04:01:02.622Z,48.20
2023-04-09T04:03:52.032Z,48.30
2023-04-09T04:06:32.143Z,51.00
2023-04-09T04:09:29.936Z,55.00
2023-04-09T04:12:15.870Z,54.80
2023-04-09T04:15:21.078Z,58.40
2023-04-09T04:18:00.963Z,56.70
2023-04-09T04:20:49.629Z,53.70
2023-04-09T04:23:32.369Z,53.20
2023-04-09T04:26:12.299Z,48.70
2023-04-09T04:29:02.896Z,48.90
2023-04-09T04:31:59.502Z,49.40
2023-04-09T04:34:34.040Z,47.30
2023-04-09T04:37:20.881Z,47.40
2023-04-09T04:40:04.433Z,45.90
2023-04-09T04:42:36.581Z,43.10
2023-04-09T04:45:15.293Z,40.20
2023-04-09T04:47:54.691Z,38.00
2023-04-09T04:50:30.815Z,39.00
2023-04-09T04:53:18.559Z,39.80
2023-04-09T04:55:54.027Z,37.30
2023-04-09T04:58:31.181Z,37.90
2023-04-09T05:01:05.324Z,36.60
2023-04-09T05:03:41.246Z,41.30
2023-04-09T05:06:34.902Z,40.10
2023-04-09T05:09:08.629Z,39.70
2023-04-09T05:11:46.631Z,41.00
2023-04-09T05:14:24.508Z,39.20
2023-04-09T05:17:18.092Z,38.40
2023-04-09T05:20:07.680Z,38.60
2023-04-09T05:22:46.638Z,38.30
2023-04-09T05:25:16.972Z,38.40
2023-04-09T05:27:47.543Z,39.70
2023-04-09T05:30:20.151Z,37.90
2023-04-09T05:32:54.961Z,40.10
2023-04-09T05:35:33.616Z,38.20
2023-04-09T05:38:14.032Z,39.20
2023-04-09T05:40:55.921Z,38.60
2023-04-09T05:43:26.122Z,39.40
2023-04-09T05:45:58.894Z,37.90
2023-04-09T05:48:35.407Z,38.50
2023-04-09T05:51:06.903Z,43.80
2023-04-09T05:53:44.990Z,53.10
2023-04-09T05:56:16.598Z,42.90
2023-04-09T05:58:57.617Z,43.30
2023-04-09T06:01:37.992Z,44.80
2023-04-09T06:04:17.543Z,42.90
2023-04-09T06:07:01.007Z,41.80
2023-04-09T06:09:39.066Z,43.10
2023-04-09T06:12:20.298Z,42.50
2023-04-09T06:14:56.331Z,43.60
2023-04-09T06:17:35.619Z,47.40
2023-04-09T06:20:09.863Z,51.70
2023-04-09T06:22:39.720Z,53.90
2023-04-09T06:25:09.045Z,57.90
2023-04-09T06:27:39.858Z,56.60
2023-04-09T06:30:26.134Z,58.30
2023-04-09T06:33:08.203Z,57.60
2023-04-09T06:35:41.547Z,58.10
2023-04-09T06:38:13.984Z,57.10
2023-04-09T06:40:50.168Z,55.50
2023-04-09T06:43:25.073Z,58.30
2023-04-09T06:45:56.012Z,56.30
2023-04-09T06:48:25.628Z,59.00
2023-04-09T06:50:58.503Z,57.60
2023-04-09T06:53:30.820Z,58.70
2023-04-09T06:56:00.695Z,62.80
2023-04-09T06:58:32.044Z,62.10
2023-04-09T07:01:08.631Z,68.30
2023-04-09T07:03:51.166Z,70.30
2023-04-09T07:06:29.943Z,73.30
2023-04-09T07:08:59.420Z,71.10
2023-04-09T07:11:28.765Z,69.50
2023-04-09T07:14:02.714Z,67.50
2023-04-09T07:16:32.076Z,63.20
2023-04-09T07:19:01.419Z,59.60
2023-04-09T07:21:30.588Z,58.10
2023-04-09T07:24:00.137Z,59.20
2023-04-09T07:26:30.401Z,59.10
2023-04-09T07:28:59.759Z,56.40
2023-04-09T07:31:29.061Z,58.00
2023-04-09T07:33:58.242Z,58.10
2023-04-09T07:36:29.986Z,57.80
2023-04-09T07:39:00.150Z,61.90
2023-04-09T07:41:29.364Z,58.70
2023-04-09T07:43:59.360Z,83.00
2023-04-09T07:46:28.601Z,72.10
2023-04-09T07:48:57.981Z,65.70
2023-04-09T07:51:27.912Z,58.10
2023-04-09T07:53:57.167Z,58.10
2023-04-09T07:56:26.680Z,61.30
2023-04-09T07:58:59.344Z,61.10
2023-04-09T08:01:34.241Z,71.50
2023-04-09T08:04:08.610Z,59.90
2023-04-09T08:06:54.223Z,61.20
2023-04-09T08:09:24.879Z,60.10
2023-04-09T08:12:02.772Z,60.00
2023-04-09T08:14:38.624Z,64.50
2023-04-09T08:17:11.885Z,60.50
2023-04-09T08:22:32.427Z,62.00
2023-04-09T08:25:14.656Z,63.30
2023-04-09T08:27:47.941Z,64.30
2023-04-09T08:30:22.976Z,64.90
2023-04-09T08:35:54.512Z,66.00
2023-04-09T08:38:37.487Z,65.10
2023-04-09T08:41:29.577Z,63.60
2023-04-09T08:44:26.579Z,60.30
2023-04-09T08:47:50.207Z,59.80
2023-04-09T08:50:25.710Z,57.40
2023-04-09T08:53:14.453Z,57.60
2023-04-09T08:56:00.909Z,58.90
2023-04-09T08:58:37.345Z,57.80
2023-04-09T09:01:35.265Z,60.30
2023-04-09T09:04:20.496Z,64.70
2023-04-09T09:06:55.421Z,62.50
2023-04-09T09:09:31.265Z,60.80
2023-04-09T09:12:03.977Z,74.30
2023-04-09T09:14:36.006Z,73.20
2023-04-09T09:17:17.272Z,56.60
2023-04-09T09:19:54.362Z,56.50
2023-04-09T09:23:02.920Z,54.20
2023-04-09T09:25:43.928Z,56.10
2023-04-09T09:28:20.293Z,53.50
2023-04-09T09:30:59.998Z,54.30
2023-04-09T09:33:41.146Z,59.40
2023-04-09T09:36:22.862Z,56.20
2023-04-09T09:39:10.563Z,56.70
2023-04-09T09:41:49.034Z,59.30
2023-04-09T09:44:51.236Z,57.40
2023-04-09T09:47:29.639Z,59.00
2023-04-09T09:50:07.494Z,55.70
2023-04-09T09:52:51.996Z,69.50
2023-04-09T09:55:33.541Z,60.50
2023-04-09T09:58:26.438Z,61.10
2023-04-09T10:00:59.914Z,58.30
2023-04-09T10:03:39.126Z,55.60
2023-04-09T10:06:20.571Z,53.30
2023-04-09T10:09:09.473Z,52.20
2023-04-09T10:11:50.082Z,52.10
2023-04-09T10:14:30.023Z,54.00
2023-04-09T10:17:15.734Z,50.10
2023-04-09T10:20:21.665Z,51.20
2023-04-09T10:22:56.922Z,50.40
2023-04-09T10:25:34.942Z,49.20
2023-04-09T10:28:22.326Z,50.10
2023-04-09T10:31:01.193Z,49.60
2023-04-09T10:33:46.508Z,51.80
2023-04-09T10:36:25.155Z,51.60
2023-04-09T10:38:59.982Z,49.40
2023-04-09T10:41:58.696Z,51.10
2023-04-09T10:45:06.332Z,51.50
2023-04-09T10:47:46.578Z,52.80
2023-04-09T10:50:43.034Z,52.30
2023-04-09T10:53:42.457Z,50.70
2023-04-09T10:56:32.736Z,51.70
2023-04-09T10:59:31.278Z,50.10
2023-04-09T11:02:39.074Z,48.80
2023-04-09T11:05:35.197Z,47.60
2023-04-09T11:08:15.506Z,47.80
2023-04-09T11:11:02.196Z,46.70
2023-04-09T11:13:36.519Z,47.20
2023-04-09T11:16:07.536Z,50.50
2023-04-09T11:18:42.273Z,48.30
2023-04-09T11:21:21.720Z,47.20
2023-04-09T11:24:03.003Z,47.20
2023-04-09T11:26:46.934Z,46.60
2023-04-09T11:29:26.195Z,44.70
2023-04-09T11:32:10.387Z,46.30
2023-04-09T11:34:57.778Z,50.00
2023-04-09T11:37:43.484Z,46.90
2023-04-09T11:40:39.720Z,48.50
2023-04-09T11:43:46.309Z,47.70
2023-04-09T11:46:21.911Z,49.30
2023-04-09T11:49:15.391Z,48.60
2023-04-09T11:51:58.520Z,49.40
2023-04-09T11:54:35.794Z,47.70
2023-04-09T11:57:11.313Z,48.60
2023-04-09T11:59:54.456Z,50.60
2023-04-09T12:02:26.287Z,46.80
2023-04-09T12:05:14.934Z,48.00
2023-04-09T12:07:56.735Z,50.00
2023-04-09T12:10:47.447Z,49.60
2023-04-09T12:13:34.407Z,49.20
2023-04-09T12:16:25.259Z,49.40
2023-04-09T12:19:09.910Z,53.50
2023-04-09T12:21:58.563Z,56.70
2023-04-09T12:24:34.558Z,52.70
2023-04-09T12:27:25.775Z,54.50
2023-04-09T12:30:04.784Z,48.90
2023-04-09T12:32:51.539Z,50.50
2023-04-09T12:35:28.627Z,52.30
2023-04-09T12:38:05.090Z,53.70
2023-04-09T12:40:43.322Z,48.20
2023-04-09T12:43:20.001Z,50.80
2023-04-09T12:46:01.655Z,53.40
2023-04-09T12:48:37.175Z,55.40
2023-04-09T12:51:25.600Z,54.60
2023-04-09T12:54:15.294Z,55.80
2023-04-09T12:57:06.044Z,52.40
2023-04-09T12:59:48.393Z,55.30
2023-04-09T13:02:35.495Z,56.80
2023-04-09T13:05:23.263Z,59.00
2023-04-09T13:07:53.498Z,56.30
2023-04-09T13:10:26.108Z,53.20
2023-04-09T13:13:00.986Z,53.60
2023-04-09T13:15:48.199Z,53.80
2023-04-09T13:18:22.657Z,53.30
2023-04-09T13:21:11.706Z,53.30
2023-04-09T13:23:47.538Z,155.40
2023-04-09T13:26:23.028Z,66.80
2023-04-09T13:28:57.058Z,58.90
2023-04-09T13:31:43.561Z,56.20
2023-04-09T13:34:31.383Z,56.10
2023-04-09T13:37:15.928Z,55.30
2023-04-09T13:39:47.432Z,54.20
2023-04-09T13:42:20.500Z,51.50
2023-04-09T13:45:00.851Z,50.30
2023-04-09T13:47:45.864Z,52.20
2023-04-09T13:50:28.837Z,55.60
2023-04-09T13:53:23.746Z,50.20
2023-04-09T13:55:56.772Z,50.00
2023-04-09T13:58:37.515Z,46.80
2023-04-09T14:01:31.014Z,49.10
2023-04-09T14:04:37.655Z,51.00
2023-04-09T14:07:18.553Z,53.20
2023-04-09T14:09:56.677Z,111.10
2023-04-09T14:12:34.520Z,58.20
2023-04-09T14:15:09.541Z,53.30
2023-04-09T14:17:41.066Z,54.40
2023-04-09T14:20:21.036Z,55.50
2023-04-09T14:22:56.284Z,59.20
2023-04-09T14:25:38.020Z,56.50
2023-04-09T14:28:29.226Z,57.10
2023-04-09T14:31:08.187Z,54.00
2023-04-09T14:33:59.083Z,56.50
2023-04-09T14:37:07.548Z,53.00
2023-04-09T14:40:13.514Z,48.60
2023-04-09T14:42:45.384Z,49.20
2023-04-09T14:45:37.911Z,48.60
2023-04-09T14:48:16.699Z,53.10
2023-04-09T14:50:57.898Z,52.50
2023-04-09T14:53:42.759Z,53.60
2023-04-09T14:56:24.056Z,54.20
2023-04-09T14:59:00.656Z,52.30
2023-04-09T15:01:34.798Z,49.30
2023-04-09T15:04:24.648Z,50.30
2023-04-09T15:07:19.389Z,50.30
2023-04-09T15:10:00.651Z,51.00
2023-04-09T15:12:37.728Z,52.70
2023-04-09T15:15:14.621Z,52.90
2023-04-09T15:17:51.195Z,52.40
2023-04-09T15:20:26.534Z,53.00
2023-04-09T15:22:59.837Z,54.30
2023-04-09T15:25:41.760Z,56.50
2023-04-09T15:28:18.902Z,56.10
2023-04-09T15:30:59.125Z,57.70
2023-04-09T15:33:42.889Z,57.10
2023-04-09T15:36:24.025Z,57.50
2023-04-09T15:39:18.639Z,57.50
2023-04-09T15:42:19.331Z,58.80
2023-04-09T15:45:16.906Z,58.80
2023-04-09T15:48:05.726Z,55.80
2023-04-09T15:51:08.857Z,61.50
2023-04-09T15:54:08.277Z,59.40
2023-04-09T15:56:57.636Z,58.80
2023-04-09T15:59:58.007Z,62.70
2023-04-09T16:02:59.119Z,65.70
2023-04-09T16:05:46.648Z,66.40
2023-04-09T16:08:44.309Z,71.50
2023-04-09T16:11:39.018Z,76.70
2023-04-09T16:14:26.950Z,75.30
2023-04-09T16:17:22.132Z,74.20
2023-04-09T16:20:09.002Z,75.80
2023-04-09T16:22:48.489Z,74.90
2023-04-09T16:25:40.252Z,72.80
2023-04-09T16:31:18.513Z,78.20
2023-04-09T16:34:05.796Z,79.80
2023-04-09T16:36:44.834Z,77.80
2023-04-09T16:39:21.708Z,76.80
2023-04-09T16:42:21.649Z,77.70
2023-04-09T16:45:05.963Z,78.60
2023-04-09T16:47:57.579Z,74.10
2023-04-09T16:50:43.105Z,72.60
2023-04-09T16:53:20.621Z,77.00
2023-04-09T16:56:02.331Z,75.90
2023-04-09T16:59:10.421Z,74.20
2023-04-09T17:01:42.885Z,72.10
2023-04-09T17:04:18.471Z,73.20
2023-04-09T17:06:49.193Z,74.80
2023-04-09T17:09:19.742Z,79.50
2023-04-09T17:12:01.423Z,76.40
2023-04-09T17:14:43.281Z,73.20
2023-04-09T17:17:24.323Z,70.80
2023-04-09T17:20:01.605Z,69.30
2023-04-09T17:22:45.290Z,71.50
2023-04-09T17:25:19.421Z,67.50
2023-04-09T17:27:53.181Z,73.70
2023-04-09T17:30:40.250Z,119.10
2023-04-09T17:33:17.364Z,115.00
2023-04-09T17:36:04.053Z,62.70
2023-04-09T17:38:44.136Z,62.10
2023-04-09T17:41:19.321Z,59.50
2023-04-09T17:43:57.043Z,58.80
2023-04-09T17:46:34.888Z,47.30
2023-04-09T17:49:10.623Z,45.50
2023-04-09T17:51:44.294Z,44.30
2023-04-09T17:54:16.884Z,41.10
2023-04-09T17:56:49.833Z,40.80
2023-04-09T17:59:20.960Z,41.50
2023-04-09T18:02:09.664Z,41.20
2023-04-09T18:04:54.124Z,43.70
2023-04-09T18:07:52.161Z,47.60
2023-04-09T18:10:34.177Z,51.10
2023-04-09T18:13:10.786Z,48.00
2023-04-09T18:15:51.451Z,50.40
2023-04-09T18:18:39.033Z,48.90
2023-04-09T18:22:21.933Z,47.40
2023-04-09T18:26:14.264Z,44.60
2023-04-09T18:29:33.656Z,48.00
2023-04-09T18:32:26.035Z,47.00
2023-04-09T18:35:56.753Z,50.30
2023-04-09T18:38:43.667Z,50.70
2023-04-09T18:42:28.458Z,57.30
2023-04-09T18:45:23.960Z,58.80
2023-04-09T18:48:07.462Z,59.90
2023-04-09T18:51:41.691Z,62.20
2023-04-09T18:54:39.825Z,62.30
2023-04-09T19:01:21.008Z,45.40
2023-04-09T19:09:40.730Z,45.80
2023-04-09T19:12:24.327Z,47.20
2023-04-09T19:14:54.433Z,46.40
2023-04-09T19:17:33.664Z,43.90
2023-04-09T19:20:20.039Z,64.50
2023-04-09T19:32:13.343Z,85.00
2023-04-09T20:13:14.984Z,96.10
2023-04-09T20:20:46.982Z,91.80
2023-04-09T20:24:00.897Z,91.50
2023-04-09T20:26:42.182Z,99.80
2023-04-09T20:29:23.656Z,101.80
2023-04-09T20:32:41.679Z,99.70
2023-04-09T20:35:14.990Z,92.70
2023-04-09T20:38:09.142Z,97.40
2023-04-09T20:40:48.683Z,104.20
2023-04-09T20:43:39.805Z,104.60
2023-04-09T20:46:33.983Z,107.40
2023-04-09T20:49:33.800Z,121.90
2023-04-09T20:52:32.961Z,114.60
2023-04-09T20:55:16.042Z,95.50
2023-04-09T20:58:14.879Z,92.30
2023-04-09T21:04:25.280Z,104.50
2023-04-09T21:07:15.968Z,97.30
2023-04-09T21:10:02.549Z,100.90
2023-04-09T21:12:57.567Z,106.30
2023-04-09T21:15:42.333Z,93.50
2023-04-09T21:18:22.599Z,102.90
2023-04-09T21:20:54.184Z,98.10
2023-04-09T21:23:25.484Z,106.10
2023-04-09T21:26:00.570Z,97.30
2023-04-09T21:28:34.327Z,103.40
2023-04-09T21:31:12.427Z,102.10
2023-04-09T21:35:18.717Z,129.70
2023-04-09T21:38:39.896Z,118.20
2023-04-09T21:41:10.811Z,104.10
2023-04-09T21:43:44.842Z,110.90
2023-04-09T21:46:17.988Z,98.80
2023-04-09T21:49:16.389Z,96.00
2023-04-09T21:51:47.652Z,101.70
2023-04-09T21:56:51.341Z,103.70
2023-04-09T21:59:37.702Z,114.10
2023-04-09T22:02:09.312Z,108.50
2023-04-09T22:04:45.468Z,106.10
2023-04-09T22:07:18.677Z,113.30
2023-04-09T22:09:55.792Z,162.50
2023-04-09T22:12:28.647Z,112.90
2023-04-09T22:15:11.364Z,113.50
2023-04-09T22:17:51.626Z,114.90
2023-04-09T22:20:23.534Z,111.70
2023-04-09T22:23:08.952Z,114.30
2023-04-09T22:25:42.549Z,115.20
2023-04-09T22:28:16.045Z,118.20
2023-04-09T22:30:51.006Z,122.60
2023-04-09T22:33:26.991Z,113.90
2023-04-09T22:36:03.469Z,120.70
2023-04-09T22:38:50.439Z,122.70
2023-04-09T22:41:23.883Z,114.90
2023-04-09T22:43:58.605Z,119.50
2023-04-09T22:46:41.669Z,117.60
2023-04-09T22:49:14.913Z,115.60
2023-04-09T22:51:48.700Z,112.60
2023-04-09T22:54:30.525Z,104.60
2023-04-09T22:57:11.409Z,108.10
2023-04-09T22:59:45.616Z,115.10
2023-04-09T23:02:25.772Z,111.20
2023-04-09T23:05:13.020Z,117.10
2023-04-09T23:07:58.547Z,117.50
2023-04-09T23:10:42.554Z,123.10
2023-04-09T23:13:21.210Z,133.10
2023-04-09T23:16:00.273Z,150.80
2023-04-09T23:18:39.182Z,151.00
2023-04-09T23:21:21.260Z,130.30
2023-04-09T23:24:00.369Z,129.00
2023-04-09T23:26:31.217Z,125.40
2023-04-09T23:29:03.902Z,123.70
2023-04-09T23:31:38.988Z,114.70
2023-04-09T23:34:12.334Z,107.40
2023-04-09T23:36:42.399Z,140.00
2023-04-09T23:39:23.653Z,121.90
2023-04-09T23:41:59.695Z,103.80
2023-04-09T23:44:33.844Z,100.10
2023-04-09T23:47:06.960Z,105.50
2023-04-09T23:49:40.281Z,95.60
2023-04-09T23:52:17.042Z,92.40
2023-04-09T23:55:07.797Z,94.10
2023-04-09T23:57:45.615Z,101.70
